Time;durP1;ratioP1;P1;durP2;ratioP2;P2;SDS_P1;SDS_P2;PMS_P1;PMS_P2;Temp;Humidity;BMP_temperature;BMP_pressure;BME280_temperature;BME280_humidity;BME280_pressure;Samples;Min_cycle;Max_cycle;Signal;HPM_P1;HPM_P2
2021/05/03 00:01:54;;;;;;;5.67;3.23;;;4.70;75.30;;;;;;5029316;28;20026;-76
2021/05/03 00:04:21;;;;;;;4.10;3.10;;;4.70;75.60;;;;;;5012699;28;20069;-76
2021/05/03 00:06:47;;;;;;;5.50;2.87;;;4.70;75.30;;;;;;4993987;28;20068;-76
2021/05/03 00:09:13;;;;;;;10.33;3.20;;;4.70;75.60;;;;;;5010826;28;20057;-76
2021/05/03 00:11:39;;;;;;;5.17;3.40;;;4.70;75.50;;;;;;5011475;28;20468;-76
2021/05/03 00:14:04;;;;;;;4.27;3.00;;;4.70;75.80;;;;;;5019135;28;20123;-76
2021/05/03 00:16:30;;;;;;;5.27;2.60;;;4.70;75.80;;;;;;5031547;28;20251;-78
2021/05/03 00:18:56;;;;;;;6.67;3.00;;;4.60;75.70;;;;;;5013789;28;20385;-76
2021/05/03 00:21:22;;;;;;;4.73;2.77;;;4.60;75.70;;;;;;5012058;28;20088;-77
2021/05/03 00:23:48;;;;;;;3.87;2.83;;;4.50;76.00;;;;;;5011095;28;20405;-76
2021/05/03 00:26:14;;;;;;;5.30;2.77;;;4.50;76.30;;;;;;5011673;28;20113;-76
2021/05/03 00:28:41;;;;;;;4.83;3.23;;;4.50;76.10;;;;;;5010033;28;20034;-76
2021/05/03 00:31:07;;;;;;;4.20;3.17;;;4.40;76.00;;;;;;5012197;28;20494;-77
2021/05/03 00:33:33;;;;;;;4.87;3.20;;;4.40;76.10;;;;;;5025213;28;20070;-78
2021/05/03 00:35:58;;;;;;;3.53;3.03;;;4.30;76.30;;;;;;5031246;28;20030;-76
2021/05/03 00:38:24;;;;;;;4.53;2.90;;;4.30;76.30;;;;;;5030544;28;20490;-76
2021/05/03 00:40:50;;;;;;;5.20;2.90;;;4.20;76.30;;;;;;5023576;28;20036;-76
2021/05/03 00:43:20;;;;;;;6.13;3.17;;;4.20;76.30;;;;;;5010582;28;20027;-76
2021/05/03 00:45:47;;;;;;;4.17;3.27;;;4.20;76.50;;;;;;5009479;28;20030;-76
2021/05/03 00:48:14;;;;;;;3.97;3.00;;;4.10;76.70;;;;;;5010047;28;20037;-76
2021/05/03 00:50:41;;;;;;;5.07;3.57;;;4.10;76.60;;;;;;5009187;28;20076;-79
2021/05/03 00:53:07;;;;;;;7.23;3.30;;;3.90;76.60;;;;;;5011797;28;20037;-76
2021/05/03 00:55:33;;;;;;;4.53;3.13;;;3.90;77.20;;;;;;5011849;28;20026;-76
2021/05/03 00:57:59;;;;;;;4.20;3.53;;;3.90;77.40;;;;;;5008396;28;20046;-75
2021/05/03 01:00:26;;;;;;;3.97;3.17;;;3.90;77.50;;;;;;5011912;28;20116;-76
2021/05/03 01:02:53;;;;;;;4.10;3.60;;;4.00;77.60;;;;;;5009436;28;20085;-76
2021/05/03 01:05:19;;;;;;;6.53;3.63;;;4.00;78.10;;;;;;5010136;28;20030;-76
2021/05/03 01:07:46;;;;;;;5.57;3.90;;;4.10;77.70;;;;;;5011000;28;20121;-77
2021/05/03 01:10:13;;;;;;;5.13;4.10;;;4.00;77.60;;;;;;5009442;28;20034;-76
2021/05/03 01:12:38;;;;;;;7.47;4.00;;;4.00;77.80;;;;;;5004641;28;20026;-80
2021/05/03 01:15:06;;;;;;;4.77;3.50;;;4.10;77.90;;;;;;4990035;28;20030;-76
2021/05/03 01:17:33;;;;;;;5.80;3.87;;;4.10;77.70;;;;;;4991405;28;20049;-77
2021/05/03 01:20:14;;;;;;;6.27;4.20;;;4.00;77.40;;;;;;4990324;28;20035;-76
2021/05/03 01:22:40;;;;;;;4.60;3.60;;;3.90;77.60;;;;;;4989899;28;20042;-80
2021/05/03 01:25:08;;;;;;;5.20;3.30;;;3.90;77.90;;;;;;5025601;28;20060;-77
2021/05/03 01:27:34;;;;;;;5.33;3.50;;;3.90;78.20;;;;;;5030374;28;20029;-81
2021/05/03 01:30:02;;;;;;;6.90;4.30;;;3.90;78.40;;;;;;5028588;28;20949;-76
2021/05/03 01:32:29;;;;;;;5.13;3.83;;;4.00;78.70;;;;;;5030553;28;20506;-76
2021/05/03 01:34:55;;;;;;;5.90;4.10;;;4.00;78.50;;;;;;5028483;28;20083;-76
2021/05/03 01:37:21;;;;;;;7.17;3.97;;;4.00;78.40;;;;;;5030691;28;20037;-76
2021/05/03 01:39:47;;;;;;;5.97;4.13;;;4.00;78.30;;;;;;5028364;28;20091;-77
2021/05/03 01:42:12;;;;;;;5.23;3.90;;;4.00;78.10;;;;;;5013668;28;20065;-76
2021/05/03 01:44:39;;;;;;;6.40;4.00;;;3.90;78.00;;;;;;5012176;28;20038;-75
2021/05/03 01:47:05;;;;;;;5.83;3.83;;;3.80;78.10;;;;;;5008908;28;20082;-75
2021/05/03 01:49:31;;;;;;;6.17;4.57;;;3.70;78.20;;;;;;5009910;28;20472;-75
2021/05/03 01:51:57;;;;;;;6.83;4.50;;;3.70;78.40;;;;;;4992306;28;20033;-75
2021/05/03 01:54:23;;;;;;;7.20;3.90;;;3.60;78.60;;;;;;5011997;28;20435;-76
2021/05/03 01:56:49;;;;;;;5.60;4.30;;;3.60;78.80;;;;;;4992751;28;20030;-76
2021/05/03 01:59:15;;;;;;;5.27;3.77;;;3.60;79.00;;;;;;5009250;28;20064;-76
2021/05/03 02:01:41;;;;;;;6.07;4.23;;;3.70;79.10;;;;;;5009034;28;20042;-77
2021/05/03 02:04:07;;;;;;;11.20;4.57;;;3.70;79.20;;;;;;4992835;28;20033;-76
2021/05/03 02:06:35;;;;;;;7.83;4.33;;;3.70;79.30;;;;;;5010875;28;20487;-76
2021/05/03 02:09:09;;;;;;;10.10;4.50;;;3.70;79.30;;;;;;5009083;28;20033;-75
2021/05/03 02:11:36;;;;;;;7.47;4.53;;;3.70;79.40;;;;;;5021931;28;20031;-76
2021/05/03 02:14:02;;;;;;;6.90;4.97;;;3.70;79.30;;;;;;5027773;28;20026;-75
2021/05/03 02:16:28;;;;;;;6.40;4.50;;;3.60;79.20;;;;;;5029513;28;20424;-75
2021/05/03 02:18:53;;;;;;;7.00;4.83;;;3.60;79.10;;;;;;5011950;28;20110;-76
2021/05/03 02:21:19;;;;;;;5.77;4.40;;;3.50;79.10;;;;;;4998376;28;20026;-76
2021/05/03 02:23:45;;;;;;;5.30;4.57;;;3.50;79.20;;;;;;5009856;28;20026;-76
2021/05/03 02:26:10;;;;;;;6.83;4.87;;;3.50;79.30;;;;;;4995957;28;20092;-76
2021/05/03 02:28:36;;;;;;;7.37;4.80;;;3.50;79.30;;;;;;5014749;28;20030;-76
2021/05/03 02:31:02;;;;;;;7.07;4.87;;;3.40;79.30;;;;;;5012606;28;20030;-76
2021/05/03 02:33:28;;;;;;;7.07;5.03;;;3.40;79.50;;;;;;5012716;28;20034;-76
2021/05/03 02:35:53;;;;;;;7.40;4.83;;;3.40;79.90;;;;;;5009624;28;20058;-80
2021/05/03 02:38:19;;;;;;;9.57;4.87;;;3.30;79.80;;;;;;4993904;28;20035;-76
2021/05/03 02:40:44;;;;;;;7.97;4.50;;;3.30;79.90;;;;;;5012263;28;20415;-76
2021/05/03 02:43:10;;;;;;;6.67;4.90;;;3.40;80.10;;;;;;5011684;28;20175;-75
2021/05/03 02:45:36;;;;;;;6.87;4.50;;;3.40;80.20;;;;;;4994449;28;20106;-76
2021/05/03 02:48:03;;;;;;;7.57;4.33;;;3.50;80.50;;;;;;5011589;28;20030;-77
2021/05/03 02:50:29;;;;;;;8.87;5.10;;;3.50;80.50;;;;;;5012831;28;20133;-75
2021/05/03 02:52:55;;;;;;;6.50;5.10;;;3.60;80.70;;;;;;5013294;28;20033;-79
2021/05/03 02:55:22;;;;;;;7.00;4.87;;;3.50;79.90;;;;;;5012746;28;20045;-76
2021/05/03 02:57:49;;;;;;;9.57;5.00;;;3.50;80.00;;;;;;5016809;28;20049;-76
2021/05/03 03:00:28;;;;;;;7.90;5.07;;;3.40;80.10;;;;;;5015187;28;20411;-75
2021/05/03 03:02:54;;;;;;;10.07;5.60;;;3.40;80.40;;;;;;5015580;28;20025;-81
2021/05/03 03:05:20;;;;;;;9.37;5.90;;;3.50;80.70;;;;;;5015139;28;20040;-75
2021/05/03 03:07:47;;;;;;;6.60;5.70;;;3.50;80.60;;;;;;5033010;28;20029;-75
2021/05/03 03:10:13;;;;;;;7.97;6.37;;;3.50;80.60;;;;;;5014911;28;20033;-76
2021/05/03 03:12:38;;;;;;;8.20;6.40;;;3.50;80.80;;;;;;4999610;28;20361;-76
2021/05/03 03:15:05;;;;;;;13.30;6.67;;;3.60;80.90;;;;;;5033372;28;20025;-76
2021/05/03 03:17:31;;;;;;;9.10;6.80;;;3.70;81.00;;;;;;5038206;28;20053;-76
2021/05/03 03:19:57;;;;;;;8.83;6.47;;;3.70;81.20;;;;;;5035857;28;20472;-80
2021/05/03 03:22:22;;;;;;;11.30;7.03;;;3.70;81.30;;;;;;5016421;28;20087;-76
2021/05/03 03:24:48;;;;;;;9.30;6.53;;;3.70;81.40;;;;;;4999115;28;20657;-76
2021/05/03 03:27:14;;;;;;;9.87;6.20;;;3.80;81.80;;;;;;5014633;28;20037;-76
2021/05/03 03:29:39;;;;;;;12.23;6.27;;;3.70;81.20;;;;;;5015747;28;20426;-76
2021/05/03 03:32:05;;;;;;;10.07;6.20;;;3.70;81.30;;;;;;5014477;28;20036;-78
2021/05/03 03:34:31;;;;;;;8.87;6.33;;;3.70;81.20;;;;;;5015308;28;20040;-76
2021/05/03 03:36:56;;;;;;;8.00;6.10;;;3.60;81.10;;;;;;5030352;28;20034;-76
2021/05/03 03:39:22;;;;;;;9.37;5.37;;;3.50;81.30;;;;;;5022330;28;20506;-75
2021/05/03 03:41:48;;;;;;;10.87;6.27;;;3.60;81.70;;;;;;5052698;28;20407;-76
2021/05/03 03:44:14;;;;;;;9.50;5.97;;;3.60;81.70;;;;;;5004111;28;20464;-76
2021/05/03 03:46:39;;;;;;;8.93;5.30;;;3.60;81.60;;;;;;5013041;28;20424;-75
2021/05/03 03:49:05;;;;;;;7.80;5.40;;;3.50;81.70;;;;;;5031630;28;20514;-77
2021/05/03 03:51:31;;;;;;;7.73;5.53;;;3.60;82.00;;;;;;5014731;28;20175;-76
2021/05/03 03:53:57;;;;;;;8.43;5.43;;;3.60;82.10;;;;;;4998197;28;20025;-77
2021/05/03 03:56:23;;;;;;;6.30;5.30;;;3.70;82.20;;;;;;4997407;28;20029;-76
2021/05/03 03:58:49;;;;;;;7.73;5.77;;;3.80;82.30;;;;;;5001644;28;20061;-76
2021/05/03 04:01:15;;;;;;;7.27;5.30;;;3.90;82.60;;;;;;4992057;28;20162;-77
2021/05/03 04:03:48;;;;;;;7.70;5.77;;;4.10;82.60;;;;;;4991205;28;20046;-75
2021/05/03 04:25:39;;;;;;;10.10;6.03;;;4.60;80.10;;;;;;4954371;28;20093;-76
2021/05/03 04:28:06;;;;;;;8.63;6.33;;;4.70;80.00;;;;;;5004983;28;20041;-80
2021/05/03 04:30:33;;;;;;;6.57;5.87;;;5.40;79.50;;;;;;4974691;28;20049;-76
2021/05/03 04:32:59;;;;;;;7.00;5.13;;;6.20;77.50;;;;;;4991336;28;20034;-77
2021/05/03 04:35:25;;;;;;;8.83;5.13;;;7.00;75.20;;;;;;4990158;28;20038;-77
2021/05/03 04:37:50;;;;;;;7.07;5.00;;;7.50;72.40;;;;;;4992281;28;20231;-76
2021/05/03 04:40:16;;;;;;;8.03;4.50;;;7.80;70.80;;;;;;4971065;28;20039;-75
2021/05/03 04:42:42;;;;;;;6.23;4.07;;;7.90;70.80;;;;;;4973472;28;20495;-76
2021/05/03 04:45:09;;;;;;;7.07;5.30;;;8.40;70.10;;;;;;4970202;28;20034;-81
2021/05/03 04:47:34;;;;;;;9.13;5.00;;;9.10;67.80;;;;;;4991368;28;20034;-75
2021/05/03 04:50:00;;;;;;;6.07;4.70;;;9.90;64.20;;;;;;4992747;28;20477;-76
2021/05/03 04:52:26;;;;;;;9.33;4.83;;;10.30;62.00;;;;;;5010126;28;20464;-75
2021/05/03 04:54:52;;;;;;;7.93;5.03;;;10.00;61.10;;;;;;4993988;28;20057;-76
2021/05/03 04:57:18;;;;;;;6.83;4.73;;;9.20;62.40;;;;;;4991791;28;20034;-78
2021/05/03 04:59:44;;;;;;;6.77;4.57;;;8.40;64.70;;;;;;4990605;28;20460;-76
2021/05/03 05:02:10;;;;;;;6.60;4.50;;;7.90;66.60;;;;;;4991504;28;20067;-81
2021/05/03 05:04:37;;;;;;;7.63;5.40;;;7.50;68.10;;;;;;4990008;28;20113;-76
2021/05/03 05:07:03;;;;;;;7.40;4.83;;;7.10;69.20;;;;;;4990480;28;20022;-76
2021/05/03 05:09:29;;;;;;;6.83;5.00;;;6.90;70.10;;;;;;4990108;28;20566;-76
2021/05/03 05:11:54;;;;;;;6.07;4.50;;;6.80;70.70;;;;;;4990000;28;20058;-77
2021/05/03 05:14:20;;;;;;;6.17;5.17;;;6.90;71.70;;;;;;4990851;28;20045;-76
2021/05/03 05:16:47;;;;;;;7.23;5.60;;;7.00;71.10;;;;;;4990264;28;20041;-76
2021/05/03 05:19:13;;;;;;;12.53;7.23;;;6.90;70.70;;;;;;4969940;28;20066;-81
2021/05/03 05:21:39;;;;;;;7.27;5.43;;;6.70;70.50;;;;;;5006277;28;20476;-76
2021/05/03 05:24:06;;;;;;;10.90;6.13;;;6.60;71.30;;;;;;5004974;28;20022;-76
2021/05/03 05:26:32;;;;;;;8.77;5.67;;;6.60;71.40;;;;;;4973617;28;20038;-76
2021/05/03 05:28:58;;;;;;;8.70;6.47;;;6.60;72.00;;;;;;4990414;28;20449;-75
2021/05/03 05:31:24;;;;;;;9.27;6.33;;;6.60;72.30;;;;;;4992574;28;20030;-76
2021/05/03 05:33:49;;;;;;;9.40;5.60;;;6.60;72.50;;;;;;5014928;28;20037;-76
2021/05/03 05:36:15;;;;;;;7.73;5.03;;;6.60;72.60;;;;;;4983952;28;20429;-81
2021/05/03 05:38:41;;;;;;;6.67;5.40;;;6.70;72.60;;;;;;4990979;28;20034;-75
2021/05/03 05:41:06;;;;;;;7.57;5.87;;;7.00;72.70;;;;;;4989570;28;20030;-75
2021/05/03 05:43:32;;;;;;;8.37;6.67;;;7.60;72.20;;;;;;4971104;28;20031;-76
2021/05/03 05:45:58;;;;;;;10.33;6.33;;;8.70;69.60;;;;;;4989250;28;20029;-75
2021/05/03 05:48:24;;;;;;;10.57;6.07;;;10.20;66.20;;;;;;4989208;28;20081;-74
2021/05/03 05:50:49;;;;;;;9.53;5.93;;;11.10;62.90;;;;;;4991566;28;20030;-75
2021/05/03 05:53:15;;;;;;;9.60;6.27;;;11.30;60.60;;;;;;4986607;28;20015;-76
2021/05/03 05:55:41;;;;;;;8.13;5.97;;;11.40;60.50;;;;;;4988167;28;20515;-75
2021/05/03 05:58:07;;;;;;;9.63;6.33;;;11.70;57.60;;;;;;4993840;28;20056;-75
2021/05/03 06:00:33;;;;;;;9.30;6.57;;;12.00;58.40;;;;;;5012923;28;20095;-75
2021/05/03 06:02:59;;;;;;;10.17;6.37;;;12.60;57.10;;;;;;5013969;28;20112;-74
2021/05/03 06:05:25;;;;;;;8.23;5.50;;;12.90;54.30;;;;;;5013000;28;20137;-79
2021/05/03 06:07:51;;;;;;;9.63;6.87;;;12.90;53.50;;;;;;5013508;28;20045;-76
2021/05/03 06:10:17;;;;;;;12.03;7.07;;;12.40;55.30;;;;;;5015137;28;20369;-74
2021/05/03 06:12:43;;;;;;;9.07;6.77;;;12.10;55.50;;;;;;4998575;28;20026;-74
2021/05/03 06:15:09;;;;;;;11.93;8.60;;;12.10;56.80;;;;;;5014781;28;20022;-75
2021/05/03 06:17:35;;;;;;;10.67;7.00;;;12.20;56.50;;;;;;5011278;28;20056;-74
2021/05/03 06:20:01;;;;;;;13.33;8.33;;;12.40;55.60;;;;;;5013035;28;20050;-73
2021/05/03 06:22:28;;;;;;;15.27;10.07;;;12.40;55.10;;;;;;5010089;28;20057;-74
2021/05/03 06:24:54;;;;;;;10.17;7.97;;;12.60;56.20;;;;;;5039020;28;20032;-75
2021/05/03 06:27:20;;;;;;;12.63;7.20;;;13.20;54.70;;;;;;5013121;28;20029;-75
2021/05/03 06:29:46;;;;;;;10.60;7.50;;;13.70;52.00;;;;;;5013577;28;20590;-76
2021/05/03 06:32:11;;;;;;;14.33;9.60;;;13.60;50.70;;;;;;5012680;28;20018;-75
2021/05/03 06:34:37;;;;;;;14.43;9.27;;;13.70;52.30;;;;;;5020257;28;20054;-74
2021/05/03 06:37:03;;;;;;;18.57;12.47;;;14.20;51.80;;;;;;5013908;28;20032;-75
2021/05/03 06:39:29;;;;;;;14.57;9.80;;;15.10;50.60;;;;;;5038530;28;20157;-77
2021/05/03 06:41:55;;;;;;;10.30;7.60;;;16.10;48.30;;;;;;5013832;28;20022;-76
2021/05/03 06:44:21;;;;;;;11.80;7.65;;;17.00;44.30;;;;;;5012518;28;20026;-75
2021/05/03 06:46:47;;;;;;;14.70;10.10;;;17.40;43.90;;;;;;5010394;28;20203;-74
2021/05/03 06:49:15;;;;;;;13.00;7.72;;;18.00;43.60;;;;;;5013402;28;20061;-75
2021/05/03 06:51:41;;;;;;;15.55;10.93;;;18.60;41.40;;;;;;5016982;28;20376;-73
2021/05/03 06:54:06;;;;;;;20.20;13.77;;;19.20;41.20;;;;;;5015826;28;20025;-75
2021/05/03 06:56:32;;;;;;;33.25;23.17;;;19.40;39.30;;;;;;5019302;28;20033;-74
2021/05/03 06:58:57;;;;;;;15.00;11.82;;;19.50;41.10;;;;;;5024522;28;20054;-75
2021/05/03 07:01:23;;;;;;;10.82;7.72;;;19.80;39.20;;;;;;5010208;28;20067;-74
2021/05/03 07:03:49;;;;;;;13.00;9.93;;;19.80;37.80;;;;;;5009636;28;20115;-75
2021/05/03 07:06:15;;;;;;;15.00;12.63;;;20.00;37.90;;;;;;5011602;28;20033;-75
2021/05/03 07:08:42;;;;;;;14.48;11.45;;;20.20;37.50;;;;;;5013151;28;20026;-74
2021/05/03 07:11:20;;;;;;;25.30;15.95;;;20.30;36.10;;;;;;5019113;28;20483;-74
2021/05/03 07:13:46;;;;;;;13.07;9.00;;;20.20;37.60;;;;;;5011368;28;20076;-74
2021/05/03 07:16:12;;;;;;;18.13;10.55;;;20.40;36.10;;;;;;5008937;28;20042;-75
2021/05/03 07:18:39;;;;;;;22.58;11.05;;;20.50;36.70;;;;;;5021526;28;20033;-81
2021/05/03 07:21:05;;;;;;;13.90;9.00;;;20.60;36.50;;;;;;5021597;28;20041;-74
2021/05/03 07:23:31;;;;;;;11.75;7.40;;;20.70;35.40;;;;;;4990235;28;20388;-77
2021/05/03 07:25:58;;;;;;;18.98;9.63;;;21.00;35.20;;;;;;5028570;28;20029;-73
2021/05/03 07:28:23;;;;;;;12.40;7.43;;;21.20;35.60;;;;;;5020231;28;20041;-74
2021/05/03 07:30:49;;;;;;;9.00;5.85;;;21.60;34.80;;;;;;5009891;28;20118;-75
2021/05/03 07:33:14;;;;;;;10.68;6.43;;;21.90;33.60;;;;;;5018736;28;20112;-75
2021/05/03 07:35:40;;;;;;;5.68;4.63;;;22.10;32.80;;;;;;5010294;28;20042;-74
2021/05/03 07:38:06;;;;;;;11.20;7.07;;;22.00;32.50;;;;;;5011875;28;20121;-73
2021/05/03 07:40:31;;;;;;;10.15;6.35;;;22.00;32.70;;;;;;5014947;28;20029;-73
2021/05/03 07:42:57;;;;;;;10.20;6.85;;;22.10;32.80;;;;;;5017089;28;20634;-74
2021/05/03 07:45:23;;;;;;;11.25;5.63;;;22.20;33.10;;;;;;5029054;28;20089;-74
2021/05/03 07:47:49;;;;;;;10.25;6.95;;;22.30;30.80;;;;;;5025430;28;20443;-74
2021/05/03 07:50:15;;;;;;;10.40;6.30;;;22.00;33.10;;;;;;5010411;28;20072;-74
2021/05/03 07:52:41;;;;;;;7.57;4.80;;;22.00;32.10;;;;;;5008476;28;20480;-75
2021/05/03 07:55:10;;;;;;;7.90;5.22;;;21.80;32.50;;;;;;5007723;28;20042;-76
2021/05/03 07:57:35;;;;;;;7.88;5.28;;;21.90;32.70;;;;;;5002664;28;20134;-77
2021/05/03 08:00:01;;;;;;;6.88;5.72;;;22.00;33.00;;;;;;5002320;28;20054;-75
2021/05/03 08:02:27;;;;;;;6.38;5.00;;;22.10;32.50;;;;;;5008189;28;20089;-74
2021/05/03 08:04:53;;;;;;;5.45;4.57;;;21.90;33.00;;;;;;5010994;28;20033;-75
2021/05/03 08:07:19;;;;;;;9.75;4.80;;;22.00;33.20;;;;;;5011623;28;20026;-74
2021/05/03 08:09:44;;;;;;;7.78;4.43;;;22.20;32.20;;;;;;5010438;28;20447;-74
2021/05/03 08:12:10;;;;;;;13.18;5.55;;;22.20;31.60;;;;;;5011903;28;20026;-74
2021/05/03 08:14:37;;;;;;;8.80;4.20;;;22.10;32.40;;;;;;5010735;28;20018;-72
2021/05/03 08:17:08;;;;;;;7.43;4.53;;;22.30;32.60;;;;;;5011671;28;20030;-74
2021/05/03 08:19:35;;;;;;;10.18;5.10;;;22.50;32.20;;;;;;5011375;28;20048;-75
2021/05/03 08:22:01;;;;;;;7.28;4.32;;;22.90;32.30;;;;;;4994463;28;20034;-73
2021/05/03 08:24:31;;;;;;;8.07;4.00;;;23.10;30.60;;;;;;5008549;28;20065;-73
2021/05/03 08:26:59;;;;;;;6.78;3.97;;;22.90;30.40;;;;;;4991728;28;20029;-72
2021/05/03 08:29:25;;;;;;;6.93;3.83;;;22.70;30.60;;;;;;5010619;28;20037;-74
2021/05/03 08:31:51;;;;;;;5.97;3.67;;;22.90;30.80;;;;;;5009637;28;20034;-73
2021/05/03 08:34:17;;;;;;;6.63;3.63;;;23.30;30.10;;;;;;5010955;28;20033;-74
2021/05/03 08:36:43;;;;;;;4.38;3.50;;;23.50;29.70;;;;;;5010577;28;20026;-80
2021/05/03 08:39:09;;;;;;;4.95;3.20;;;23.50;29.70;;;;;;5011243;28;20466;-73
2021/05/03 08:41:35;;;;;;;4.13;3.67;;;23.40;30.30;;;;;;5010670;28;20544;-73
2021/05/03 08:44:02;;;;;;;6.30;3.42;;;23.30;29.60;;;;;;5004619;28;20030;-74
2021/05/03 08:46:29;;;;;;;5.70;3.70;;;23.40;30.00;;;;;;5009398;28;20030;-73
2021/05/03 08:49:04;;;;;;;3.97;3.30;;;23.40;29.70;;;;;;5010714;28;20030;-73
2021/05/03 08:54:41;;;;;;;3.78;3.28;;;23.50;29.70;;;;;;5010382;28;20038;-77
2021/05/03 08:56:47;;;;;;;4.50;3.67;;;23.50;29.80;;;;;;4997645;28;20034;-77
2021/05/03 08:59:14;;;;;;;4.55;3.55;;;23.70;29.70;;;;;;5008288;28;20064;-73
2021/05/03 09:01:47;;;;;;;4.70;3.60;;;23.70;29.50;;;;;;5009252;28;20022;-73
2021/05/03 09:04:14;;;;;;;5.47;3.75;;;23.80;29.30;;;;;;5011056;28;20034;-73
2021/05/03 09:07:16;;;;;;;5.45;3.97;;;24.00;29.20;;;;;;5009987;28;20030;-75
2021/05/03 09:09:43;;;;;;;5.28;3.40;;;24.00;28.80;;;;;;5009592;28;20046;-73
2021/05/03 09:12:23;;;;;;;4.95;3.80;;;24.00;29.10;;;;;;5010233;28;20597;-74
2021/05/03 09:14:54;;;;;;;4.30;3.90;;;24.10;28.60;;;;;;5008211;28;20029;-78
2021/05/03 09:17:30;;;;;;;5.68;3.50;;;24.10;28.80;;;;;;5011067;28;20089;-76
2021/05/03 09:19:57;;;;;;;4.15;2.83;;;23.90;28.80;;;;;;5008425;28;20064;-76
2021/05/03 09:22:29;;;;;;;6.05;4.72;;;23.90;29.20;;;;;;5009265;28;20499;-74
2021/05/03 09:25:15;;;;;;;5.30;4.30;;;24.00;28.90;;;;;;5006497;28;20087;-74
2021/05/03 09:27:41;;;;;;;5.22;4.00;;;23.80;29.10;;;;;;5008232;28;20038;-74
2021/05/03 09:30:07;;;;;;;4.25;3.95;;;23.50;29.00;;;;;;5003882;28;20092;-79
2021/05/03 09:32:33;;;;;;;5.25;4.75;;;23.00;29.30;;;;;;4984466;28;20112;-75
2021/05/03 09:34:59;;;;;;;6.32;4.35;;;22.80;29.70;;;;;;5005142;28;20110;-75
2021/05/03 09:37:28;;;;;;;4.80;4.13;;;22.90;29.70;;;;;;5009083;28;20108;-73
2021/05/03 09:39:58;;;;;;;5.32;4.82;;;23.10;29.60;;;;;;5009101;28;20052;-79
2021/05/03 09:42:40;;;;;;;6.88;5.10;;;23.30;29.50;;;;;;5009484;28;20121;-74
2021/05/03 09:45:07;;;;;;;4.88;4.38;;;23.40;29.20;;;;;;5006390;28;20026;-73
2021/05/03 09:47:34;;;;;;;5.30;4.55;;;23.60;29.30;;;;;;4991307;28;20037;-74
2021/05/03 09:50:07;;;;;;;4.47;4.05;;;23.70;29.20;;;;;;4992615;28;21439;-73
2021/05/03 09:52:33;;;;;;;6.03;4.95;;;23.70;29.20;;;;;;5007437;28;20109;-74
2021/05/03 09:54:58;;;;;;;6.55;5.00;;;23.90;28.90;;;;;;5010296;28;20121;-74
2021/05/03 09:57:24;;;;;;;6.28;5.38;;;23.90;28.60;;;;;;5008859;28;20460;-75
2021/05/03 09:59:52;;;;;;;5.53;4.40;;;23.80;28.70;;;;;;5026226;28;20104;-74
2021/05/03 10:02:35;;;;;;;4.45;4.05;;;23.90;29.30;;;;;;5027853;28;20108;-73
2021/05/03 10:05:14;;;;;;;;;;;24.00;29.00;;;;;;5028995;28;20065;-75
2021/05/03 10:07:42;;;;;;;7.03;4.68;;;24.00;28.60;;;;;;5029191;28;20370;-76
2021/05/03 10:12:36;;;;;;;5.55;4.50;;;23.90;28.90;;;;;;5029935;28;20043;-74
2021/05/03 10:15:06;;;;;;;4.60;4.03;;;24.00;29.00;;;;;;5028672;28;20028;-74
2021/05/03 10:17:32;;;;;;;5.90;5.35;;;24.20;28.60;;;;;;5030047;28;20045;-74
2021/05/03 10:20:00;;;;;;;5.80;5.20;;;23.80;28.60;;;;;;5011538;28;20042;-79
2021/05/03 10:22:27;;;;;;;6.72;4.63;;;23.40;29.10;;;;;;5010408;28;20036;-75
2021/05/03 10:24:56;;;;;;;6.20;4.88;;;23.30;29.30;;;;;;4995387;28;20364;-74
2021/05/03 10:27:25;;;;;;;5.18;4.05;;;23.20;29.40;;;;;;5029696;28;20427;-75
2021/05/03 10:30:22;;;;;;;5.60;4.22;;;23.60;29.50;;;;;;5029736;28;20045;-74
2021/05/03 10:33:04;;;;;;;5.07;3.95;;;23.80;29.10;;;;;;5028284;28;20029;-75
2021/05/03 10:35:39;;;;;;;5.25;4.55;;;23.90;28.90;;;;;;5013079;28;20025;-75
2021/05/03 10:38:05;;;;;;;4.32;4.00;;;23.60;28.70;;;;;;5029412;28;20033;-73
2021/05/03 10:40:33;;;;;;;6.03;3.58;;;23.00;28.90;;;;;;5001487;28;20042;-74
2021/05/03 10:43:06;;;;;;;5.05;3.90;;;22.80;29.50;;;;;;5010448;28;20030;-75
2021/05/03 10:45:45;;;;;;;;;;;22.60;29.10;;;;;;5022664;28;20025;-74
2021/05/03 10:48:32;;;;;;;6.38;5.78;;;22.20;29.30;;;;;;5032962;28;19909;-74
2021/05/03 10:50:58;;;;;;;5.47;4.97;;;21.90;29.90;;;;;;5027269;28;20029;-74
2021/05/03 10:53:41;;;;;;;5.53;5.03;;;21.50;30.60;;;;;;5028927;28;20057;-74
2021/05/03 10:56:09;;;;;;;7.07;5.57;;;21.40;30.50;;;;;;5025240;28;20097;-75
2021/05/03 10:58:53;;;;;;;5.93;4.88;;;21.40;30.50;;;;;;5007543;28;20555;-75
2021/05/03 11:01:20;;;;;;;11.45;5.28;;;21.50;30.60;;;;;;5031475;28;20183;-74
2021/05/03 11:03:55;;;;;;;5.20;4.70;;;21.80;29.90;;;;;;4997084;28;20124;-75
2021/05/03 11:06:36;;;;;;;7.10;5.10;;;22.10;29.10;;;;;;5024936;28;20037;-75
2021/05/03 11:09:30;;;;;;;6.30;5.60;;;22.10;29.50;;;;;;4995786;28;20025;-75
2021/05/03 11:11:57;;;;;;;6.45;5.40;;;22.00;29.10;;;;;;5004006;28;20033;-74
2021/05/03 11:14:27;;;;;;;6.35;5.75;;;21.70;29.40;;;;;;5031338;28;20374;-74
2021/05/03 11:17:02;;;;;;;8.15;6.25;;;21.40;29.70;;;;;;5031372;28;20490;-72
2021/05/03 11:22:43;;;;;;;4.88;4.38;;;21.00;29.60;;;;;;5029377;28;20037;-76
2021/05/03 11:25:22;;;;;;;5.93;5.43;;;21.00;29.40;;;;;;5001900;28;20050;-78
2021/05/03 11:33:07;;;;;;;6.05;4.35;;;20.80;29.70;;;;;;5025748;28;20125;-73
2021/05/03 11:43:49;;;;;;;6.55;4.53;;;21.40;29.60;;;;;;5029459;28;20038;-74
2021/05/03 11:46:25;;;;;;;8.43;3.88;;;21.50;29.20;;;;;;5030368;28;20030;-76
2021/05/03 11:48:55;;;;;;;5.25;3.60;;;21.50;29.30;;;;;;5022821;28;20460;-75
2021/05/03 11:51:21;;;;;;;5.22;4.22;;;21.50;29.50;;;;;;5023230;28;20035;-74
2021/05/03 11:53:46;;;;;;;4.95;3.60;;;21.50;29.00;;;;;;5023840;28;20040;-77
2021/05/03 11:56:19;;;;;;;4.97;3.25;;;21.20;29.10;;;;;;5021352;28;20025;-77
2021/05/03 11:58:50;;;;;;;4.95;3.97;;;21.20;29.50;;;;;;5010038;28;20905;-75
2021/05/03 12:01:16;;;;;;;3.70;3.40;;;21.30;29.40;;;;;;5030091;28;20052;-79
2021/05/03 12:03:47;;;;;;;5.10;3.95;;;21.10;29.10;;;;;;5028498;28;20032;-74
2021/05/03 12:06:31;;;;;;;6.38;3.80;;;20.90;28.90;;;;;;5030896;28;20030;-79
2021/05/03 12:09:06;;;;;;;8.18;4.00;;;20.70;29.40;;;;;;5030892;28;20491;-74
2021/05/03 12:11:33;;;;;;;6.68;5.13;;;20.50;29.30;;;;;;5031271;28;20029;-74
2021/05/03 12:13:58;;;;;;;5.70;4.28;;;20.50;29.60;;;;;;5031112;28;20431;-74
2021/05/03 12:16:38;;;;;;;4.80;4.18;;;20.60;29.50;;;;;;5013211;28;20178;-73
2021/05/03 12:19:16;;;;;;;4.80;3.85;;;20.70;29.10;;;;;;4992962;28;20384;-74
2021/05/03 12:21:42;;;;;;;3.88;3.55;;;20.70;28.90;;;;;;5010785;28;20041;-72
2021/05/03 12:24:17;;;;;;;4.43;3.42;;;20.50;28.90;;;;;;5027273;28;20129;-77
2021/05/03 12:26:59;;;;;;;4.55;3.58;;;20.30;29.20;;;;;;5030823;28;20072;-75
2021/05/03 12:29:27;;;;;;;3.60;3.10;;;20.50;28.90;;;;;;5012441;28;20041;-74
2021/05/03 12:31:53;;;;;;;4.20;2.95;;;20.40;29.00;;;;;;5013022;28;20064;-73
2021/05/03 12:34:23;;;;;;;4.97;2.80;;;20.50;28.50;;;;;;5012623;28;20049;-77
2021/05/03 12:37:12;;;;;;;6.35;2.80;;;20.60;28.60;;;;;;5031436;28;20029;-74
2021/05/03 12:39:58;;;;;;;5.65;3.13;;;20.70;28.50;;;;;;5029551;28;20051;-73
2021/05/03 12:42:35;;;;;;;5.78;3.30;;;20.70;28.70;;;;;;5011457;28;20035;-72
2021/05/03 12:45:13;;;;;;;5.38;3.70;;;20.80;29.20;;;;;;5031274;28;20551;-73
2021/05/03 12:50:32;;;;;;;2.88;2.30;;;20.70;28.60;;;;;;5031054;28;20508;-78
2021/05/03 12:53:28;;;;;;;4.60;2.70;;;20.50;28.60;;;;;;4998694;28;20387;-73
2021/05/03 13:03:56;;;;;;;3.00;2.38;;;20.80;28.10;;;;;;5012974;28;20088;-76
2021/05/03 13:09:26;;;;;;;3.67;2.35;;;21.20;28.00;;;;;;5029310;28;20041;-72
2021/05/03 13:29:15;;;;;;;4.93;2.70;;;21.00;28.70;;;;;;5029510;28;20116;-75
2021/05/03 13:31:45;;;;;;;4.28;3.33;;;20.90;28.90;;;;;;5023824;28;20041;-74
2021/05/03 13:34:15;;;;;;;2.95;2.58;;;20.80;28.60;;;;;;5030499;28;20037;-74
2021/05/03 13:36:47;;;;;;;3.40;2.88;;;20.70;28.70;;;;;;5029179;28;20037;-74
2021/05/03 13:39:13;;;;;;;3.78;2.45;;;20.70;28.60;;;;;;5025924;28;20047;-73
2021/05/03 13:41:41;;;;;;;4.30;2.00;;;20.80;28.40;;;;;;5026114;28;20041;-74
2021/05/03 13:44:08;;;;;;;2.67;2.17;;;20.90;28.10;;;;;;5028663;28;20040;-72
2021/05/03 13:46:34;;;;;;;3.17;2.45;;;21.00;27.90;;;;;;5028904;28;20091;-72
2021/05/03 13:49:00;;;;;;;3.70;2.60;;;21.00;27.80;;;;;;5012552;28;20029;-73
2021/05/03 13:51:26;;;;;;;4.28;2.75;;;20.90;28.10;;;;;;5029720;28;20427;-73
2021/05/03 13:53:53;;;;;;;4.40;3.15;;;21.00;28.80;;;;;;5028575;28;20218;-74
2021/05/03 13:56:20;;;;;;;3.28;2.97;;;21.00;28.40;;;;;;5028035;28;20036;-76
2021/05/03 13:58:46;;;;;;;4.18;3.50;;;20.90;28.50;;;;;;5028717;28;20092;-73
2021/05/03 14:01:13;;;;;;;4.00;3.42;;;21.00;28.70;;;;;;5028791;28;20042;-73
2021/05/03 14:03:39;;;;;;;4.85;3.22;;;21.20;28.10;;;;;;5028255;28;20026;-74
2021/05/03 14:06:10;;;;;;;5.95;3.47;;;21.20;28.30;;;;;;5010154;28;20053;-73
2021/05/03 14:08:36;;;;;;;4.88;3.60;;;21.30;28.50;;;;;;5023999;28;20026;-74